LNI837 WIOO-WARR
Flight info
| Callsign | LNI837 |
|---|---|
| Flight time | 1h 18m |
| Altitude | 35000 |
| Route | MASRI M635 SUMDI |
| Aircraft | B738/M-SDE2E3FGHIRWXY/LB1 |
Departure
| Time | 2026-05-01 14:02 |
|---|---|
| Airport | Supadio International Airport (WIOO) |
Arrival
| Time | 2026-05-01 15:20 |
|---|---|
| Airport | Juanda International Airport (WARR) |
| Time | Latitude | Longitude | Altitude | Speed | Heading |
|---|---|---|---|---|---|
| 2026-05-01 13:38 | -0.14578 | 109.40333 | 31 ft | 0 kts | 69° |
| 2026-05-01 13:53 | -0.14584 | 109.40316 | 31 ft | 3 kts | 69° |
| 2026-05-01 13:53 | -0.14590 | 109.40300 | 31 ft | 3 kts | 84° |
| 2026-05-01 13:54 | -0.14588 | 109.40286 | 31 ft | 3 kts | 141° |
| 2026-05-01 13:54 | -0.14571 | 109.40276 | 31 ft | 3 kts | 156° |
| 2026-05-01 13:54 | -0.14556 | 109.40269 | 31 ft | 1 kts | 158° |
| 2026-05-01 13:54 | -0.14555 | 109.40269 | 31 ft | 1 kts | 158° |
| 2026-05-01 13:56 | -0.14560 | 109.40271 | 31 ft | 2 kts | 158° |
| 2026-05-01 13:56 | -0.14596 | 109.40285 | 31 ft | 9 kts | 158° |
| 2026-05-01 13:56 | -0.14671 | 109.40315 | 31 ft | 14 kts | 157° |
| 2026-05-01 13:56 | -0.14737 | 109.40342 | 31 ft | 9 kts | 158° |
| 2026-05-01 13:57 | -0.14797 | 109.40365 | 29 ft | 9 kts | 158° |
| 2026-05-01 13:57 | -0.14838 | 109.40366 | 31 ft | 9 kts | 206° |
| 2026-05-01 13:57 | -0.14899 | 109.40315 | 31 ft | 11 kts | 175° |
| 2026-05-01 13:57 | -0.14985 | 109.40347 | 32 ft | 16 kts | 158° |
| 2026-05-01 13:58 | -0.15108 | 109.40397 | 30 ft | 22 kts | 158° |
| 2026-05-01 13:58 | -0.15267 | 109.40462 | 30 ft | 27 kts | 158° |
| 2026-05-01 13:58 | -0.15454 | 109.40538 | 30 ft | 31 kts | 158° |
| 2026-05-01 13:58 | -0.15638 | 109.40612 | 29 ft | 25 kts | 158° |
| 2026-05-01 13:59 | -0.15795 | 109.40676 | 29 ft | 24 kts | 158° |
| 2026-05-01 13:59 | -0.15942 | 109.40737 | 28 ft | 23 kts | 158° |
| 2026-05-01 13:59 | -0.16085 | 109.40795 | 29 ft | 22 kts | 158° |
| 2026-05-01 13:59 | -0.16195 | 109.40842 | 30 ft | 12 kts | 144° |
| 2026-05-01 14:00 | -0.16247 | 109.40896 | 30 ft | 10 kts | 133° |
| 2026-05-01 14:00 | -0.16288 | 109.40908 | 31 ft | 6 kts | 202° |
| 2026-05-01 14:00 | -0.16289 | 109.40875 | 31 ft | 6 kts | 325° |
| 2026-05-01 14:00 | -0.16249 | 109.40862 | 30 ft | 6 kts | 336° |
| 2026-05-01 14:01 | -0.16182 | 109.40835 | 29 ft | 31 kts | 338° |
| 2026-05-01 14:01 | -0.15744 | 109.40656 | 29 ft | 104 kts | 338° |
| 2026-05-01 14:01 | -0.14878 | 109.40301 | 40 ft | 162 kts | 337° |
| 2026-05-01 14:01 | -0.13771 | 109.39859 | 601 ft | 171 kts | 338° |
| 2026-05-01 14:02 | -0.12663 | 109.39395 | 1440 ft | 175 kts | 336° |
| 2026-05-01 14:02 | -0.11578 | 109.38790 | 2055 ft | 191 kts | 313° |
| 2026-05-01 14:02 | -0.11070 | 109.37500 | 2320 ft | 218 kts | 268° |
| 2026-05-01 14:02 | -0.11619 | 109.36035 | 2633 ft | 236 kts | 237° |
| 2026-05-01 14:03 | -0.12563 | 109.34587 | 2926 ft | 259 kts | 239° |
| 2026-05-01 14:03 | -0.13479 | 109.33009 | 3664 ft | 265 kts | 241° |
| 2026-05-01 14:03 | -0.14337 | 109.31362 | 4533 ft | 269 kts | 243° |
| 2026-05-01 14:03 | -0.15144 | 109.29657 | 5355 ft | 274 kts | 245° |
| 2026-05-01 14:04 | -0.15922 | 109.27900 | 6147 ft | 279 kts | 246° |
| 2026-05-01 14:04 | -0.16824 | 109.26173 | 6891 ft | 284 kts | 227° |
| 2026-05-01 14:04 | -0.18404 | 109.25024 | 7707 ft | 283 kts | 201° |
| 2026-05-01 14:04 | -0.19654 | 109.24671 | 8224 ft | 284 kts | 186° |
| 2026-05-01 14:05 | -0.22274 | 109.24966 | 9213 ft | 287 kts | 165° |
| 2026-05-01 14:05 | -0.24199 | 109.25522 | 9932 ft | 290 kts | 163° |
| 2026-05-01 14:05 | -0.26164 | 109.26130 | 10405 ft | 305 kts | 162° |
| 2026-05-01 14:05 | -0.28266 | 109.26789 | 10566 ft | 328 kts | 162° |
| 2026-05-01 14:06 | -0.30507 | 109.27489 | 10793 ft | 346 kts | 162° |
| 2026-05-01 14:06 | -0.32832 | 109.28209 | 11291 ft | 354 kts | 162° |
| 2026-05-01 14:06 | -0.35200 | 109.28936 | 11934 ft | 357 kts | 162° |
| 2026-05-01 14:06 | -0.37591 | 109.29666 | 12547 ft | 362 kts | 162° |
| 2026-05-01 14:07 | -0.40007 | 109.30401 | 13162 ft | 365 kts | 162° |
| 2026-05-01 14:07 | -0.42449 | 109.31141 | 13794 ft | 368 kts | 162° |
| 2026-05-01 14:07 | -0.44907 | 109.31886 | 14396 ft | 371 kts | 162° |
| 2026-05-01 14:08 | -0.49900 | 109.33393 | 15533 ft | 378 kts | 162° |
| 2026-05-01 14:08 | -0.52431 | 109.34158 | 16080 ft | 382 kts | 162° |
| 2026-05-01 14:08 | -0.54980 | 109.34930 | 16621 ft | 385 kts | 162° |
| 2026-05-01 14:08 | -0.57558 | 109.35709 | 17156 ft | 388 kts | 162° |
| 2026-05-01 14:09 | -0.60154 | 109.36494 | 17658 ft | 391 kts | 162° |
| 2026-05-01 14:09 | -0.62768 | 109.37284 | 18142 ft | 395 kts | 162° |
| 2026-05-01 14:09 | -0.65409 | 109.38083 | 18629 ft | 398 kts | 162° |
| 2026-05-01 14:09 | -0.68069 | 109.38887 | 19117 ft | 401 kts | 162° |
| 2026-05-01 14:10 | -0.70746 | 109.39696 | 19576 ft | 404 kts | 162° |
| 2026-05-01 14:10 | -0.72532 | 109.40235 | 19880 ft | 406 kts | 162° |
| 2026-05-01 14:10 | -0.76129 | 109.41321 | 20449 ft | 410 kts | 162° |
| 2026-05-01 14:10 | -0.78867 | 109.42148 | 20869 ft | 412 kts | 161° |
| 2026-05-01 14:11 | -0.81623 | 109.42982 | 21275 ft | 415 kts | 161° |
| 2026-05-01 14:11 | -0.87191 | 109.44665 | 22056 ft | 421 kts | 161° |
| 2026-05-01 14:11 | -0.89084 | 109.45237 | 22305 ft | 423 kts | 161° |
| 2026-05-01 14:12 | -0.91912 | 109.46092 | 22672 ft | 425 kts | 161° |
| 2026-05-01 14:12 | -0.94752 | 109.46950 | 23033 ft | 428 kts | 161° |
| 2026-05-01 14:12 | -0.98534 | 109.48092 | 23479 ft | 431 kts | 161° |
| 2026-05-01 14:12 | -1.00482 | 109.48680 | 23695 ft | 433 kts | 161° |
| 2026-05-01 14:13 | -1.03368 | 109.49552 | 24012 ft | 435 kts | 161° |
| 2026-05-01 14:13 | -1.06277 | 109.50432 | 24298 ft | 438 kts | 161° |
| 2026-05-01 14:13 | -1.09197 | 109.51316 | 24613 ft | 440 kts | 161° |
| 2026-05-01 14:13 | -1.12131 | 109.52203 | 24936 ft | 441 kts | 161° |
| 2026-05-01 14:14 | -1.15072 | 109.53092 | 25236 ft | 443 kts | 161° |
| 2026-05-01 14:14 | -1.17993 | 109.53975 | 25517 ft | 445 kts | 161° |
| 2026-05-01 14:14 | -1.20963 | 109.54872 | 25803 ft | 447 kts | 161° |
| 2026-05-01 14:14 | -1.23946 | 109.55774 | 26088 ft | 449 kts | 161° |
| 2026-05-01 14:15 | -1.26941 | 109.56679 | 26357 ft | 451 kts | 161° |
| 2026-05-01 14:15 | -1.29948 | 109.57588 | 26627 ft | 452 kts | 161° |
| 2026-05-01 14:15 | -1.32958 | 109.58497 | 26889 ft | 454 kts | 162° |
| 2026-05-01 14:15 | -1.35994 | 109.59415 | 27130 ft | 456 kts | 162° |
| 2026-05-01 14:16 | -1.39035 | 109.60334 | 27386 ft | 457 kts | 162° |
| 2026-05-01 14:16 | -1.42084 | 109.61256 | 27639 ft | 458 kts | 162° |
| 2026-05-01 14:16 | -1.45141 | 109.62180 | 27883 ft | 460 kts | 162° |
| 2026-05-01 14:16 | -1.48209 | 109.63107 | 28117 ft | 462 kts | 162° |
| 2026-05-01 14:17 | -1.51290 | 109.64039 | 28344 ft | 463 kts | 162° |
| 2026-05-01 14:17 | -1.54372 | 109.64971 | 28568 ft | 464 kts | 162° |
| 2026-05-01 14:17 | -1.57474 | 109.65909 | 28781 ft | 466 kts | 162° |
| 2026-05-01 14:17 | -1.60576 | 109.66848 | 29000 ft | 467 kts | 162° |
| 2026-05-01 14:18 | -1.63691 | 109.67790 | 29217 ft | 468 kts | 162° |
| 2026-05-01 14:18 | -1.66817 | 109.68735 | 29423 ft | 469 kts | 162° |
| 2026-05-01 14:18 | -1.69941 | 109.69680 | 29632 ft | 470 kts | 162° |
| 2026-05-01 14:18 | -1.72057 | 109.70320 | 29760 ft | 471 kts | 162° |
| 2026-05-01 14:19 | -1.76223 | 109.71580 | 30014 ft | 473 kts | 162° |
| 2026-05-01 14:19 | -1.79369 | 109.72532 | 30183 ft | 474 kts | 162° |
| 2026-05-01 14:19 | -1.82532 | 109.73488 | 30355 ft | 475 kts | 162° |
| 2026-05-01 14:19 | -1.85701 | 109.74446 | 30567 ft | 475 kts | 162° |
| 2026-05-01 14:20 | -1.88859 | 109.75401 | 30849 ft | 474 kts | 162° |
| 2026-05-01 14:20 | -1.95147 | 109.77303 | 31410 ft | 471 kts | 162° |
| 2026-05-01 14:20 | -1.98288 | 109.78254 | 31636 ft | 472 kts | 162° |
| 2026-05-01 14:21 | -2.01428 | 109.79204 | 31876 ft | 471 kts | 162° |
| 2026-05-01 14:21 | -2.04562 | 109.80153 | 32158 ft | 470 kts | 162° |
| 2026-05-01 14:21 | -2.07689 | 109.81099 | 32426 ft | 469 kts | 162° |
| 2026-05-01 14:22 | -2.13931 | 109.82986 | 32902 ft | 469 kts | 162° |
| 2026-05-01 14:22 | -2.17056 | 109.83932 | 33160 ft | 468 kts | 162° |
| 2026-05-01 14:22 | -2.20168 | 109.84874 | 33394 ft | 467 kts | 163° |
| 2026-05-01 14:22 | -2.23278 | 109.85815 | 33632 ft | 467 kts | 162° |
| 2026-05-01 14:23 | -2.26378 | 109.86753 | 33882 ft | 466 kts | 163° |
| 2026-05-01 14:23 | -2.29484 | 109.87693 | 34128 ft | 465 kts | 163° |
| 2026-05-01 14:23 | -2.32578 | 109.88629 | 34367 ft | 465 kts | 162° |
| 2026-05-01 14:23 | -2.35679 | 109.89567 | 34615 ft | 464 kts | 162° |
| 2026-05-01 14:24 | -2.38769 | 109.90503 | 34852 ft | 464 kts | 162° |
| 2026-05-01 14:24 | -2.41860 | 109.91439 | 34873 ft | 466 kts | 162° |
| 2026-05-01 14:24 | -2.48071 | 109.93319 | 34884 ft | 465 kts | 162° |
| 2026-05-01 14:25 | -2.54243 | 109.95188 | 34887 ft | 462 kts | 162° |
| 2026-05-01 14:25 | -2.60383 | 109.97048 | 34889 ft | 460 kts | 162° |
| 2026-05-01 14:26 | -2.69560 | 109.99827 | 34893 ft | 459 kts | 162° |
| 2026-05-01 14:27 | -2.75680 | 110.01680 | 34890 ft | 460 kts | 162° |
| 2026-05-01 14:27 | -2.81809 | 110.03536 | 34889 ft | 461 kts | 162° |
| 2026-05-01 14:28 | -2.91030 | 110.06331 | 34890 ft | 463 kts | 162° |
| 2026-05-01 14:28 | -2.97205 | 110.08202 | 34884 ft | 464 kts | 162° |
| 2026-05-01 14:29 | -3.03402 | 110.10079 | 34883 ft | 466 kts | 162° |
| 2026-05-01 14:30 | -3.15796 | 110.13837 | 34877 ft | 468 kts | 162° |
| 2026-05-01 14:31 | -3.25140 | 110.16667 | 34879 ft | 468 kts | 162° |
| 2026-05-01 14:31 | -3.31372 | 110.18557 | 34880 ft | 468 kts | 162° |
| 2026-05-01 14:32 | -3.37605 | 110.20448 | 34878 ft | 468 kts | 162° |
| 2026-05-01 14:32 | -3.43831 | 110.22337 | 34881 ft | 467 kts | 162° |
| 2026-05-01 14:33 | -3.50048 | 110.24223 | 34882 ft | 467 kts | 162° |
| 2026-05-01 14:33 | -3.56269 | 110.26110 | 34889 ft | 467 kts | 162° |
| 2026-05-01 14:34 | -3.62480 | 110.27995 | 34887 ft | 467 kts | 162° |
| 2026-05-01 14:34 | -3.68691 | 110.29880 | 34889 ft | 466 kts | 162° |
| 2026-05-01 14:35 | -3.74909 | 110.31767 | 34890 ft | 466 kts | 162° |
| 2026-05-01 14:35 | -3.81116 | 110.33653 | 34890 ft | 466 kts | 162° |
| 2026-05-01 14:36 | -3.87329 | 110.35542 | 34889 ft | 467 kts | 162° |
| 2026-05-01 14:36 | -3.93492 | 110.37559 | 34876 ft | 466 kts | 154° |
| 2026-05-01 14:36 | -3.96280 | 110.39183 | 34896 ft | 463 kts | 143° |
| 2026-05-01 14:37 | -3.98733 | 110.41262 | 34888 ft | 462 kts | 133° |
| 2026-05-01 14:37 | -4.02749 | 110.46309 | 34890 ft | 461 kts | 126° |
| 2026-05-01 14:38 | -4.06617 | 110.51447 | 34890 ft | 462 kts | 126° |
| 2026-05-01 14:38 | -4.10511 | 110.56555 | 34886 ft | 462 kts | 127° |
| 2026-05-01 14:39 | -4.14432 | 110.61648 | 34891 ft | 462 kts | 127° |
| 2026-05-01 14:39 | -4.18366 | 110.66744 | 34890 ft | 462 kts | 127° |
| 2026-05-01 14:40 | -4.22275 | 110.71809 | 34889 ft | 462 kts | 127° |
| 2026-05-01 14:40 | -4.26205 | 110.76906 | 34889 ft | 462 kts | 127° |
| 2026-05-01 14:41 | -4.30136 | 110.82008 | 34897 ft | 462 kts | 127° |
| 2026-05-01 14:41 | -4.34064 | 110.87103 | 34897 ft | 462 kts | 127° |
| 2026-05-01 14:42 | -4.37989 | 110.92194 | 34899 ft | 462 kts | 127° |
| 2026-05-01 14:42 | -4.41916 | 110.97290 | 34898 ft | 462 kts | 127° |
| 2026-05-01 14:43 | -4.45846 | 111.02378 | 34890 ft | 461 kts | 127° |
| 2026-05-01 14:43 | -4.49755 | 111.07466 | 34895 ft | 461 kts | 127° |
| 2026-05-01 14:44 | -4.53665 | 111.12551 | 34900 ft | 460 kts | 127° |
| 2026-05-01 14:44 | -4.59524 | 111.20166 | 34894 ft | 459 kts | 127° |
| 2026-05-01 14:45 | -4.66895 | 111.26129 | 34888 ft | 461 kts | 150° |
| 2026-05-01 14:46 | -4.72510 | 111.29261 | 34888 ft | 462 kts | 150° |
| 2026-05-01 14:46 | -4.80896 | 111.34019 | 34889 ft | 462 kts | 149° |
| 2026-05-01 14:47 | -4.86469 | 111.37224 | 34889 ft | 462 kts | 149° |
| 2026-05-01 14:48 | -4.94832 | 111.42043 | 34888 ft | 462 kts | 149° |
| 2026-05-01 14:48 | -5.03204 | 111.46866 | 34889 ft | 463 kts | 149° |
| 2026-05-01 14:49 | -5.14388 | 111.53307 | 34888 ft | 464 kts | 149° |
| 2026-05-01 14:50 | -5.25576 | 111.59753 | 34889 ft | 464 kts | 149° |
| 2026-05-01 14:51 | -5.33978 | 111.64596 | 34889 ft | 465 kts | 149° |
| 2026-05-01 14:52 | -5.39593 | 111.67833 | 34573 ft | 470 kts | 149° |
| 2026-05-01 14:52 | -5.42437 | 111.69473 | 33992 ft | 470 kts | 149° |
| 2026-05-01 14:52 | -5.48049 | 111.72710 | 32868 ft | 465 kts | 149° |
| 2026-05-01 14:53 | -5.50876 | 111.74340 | 32379 ft | 460 kts | 149° |
| 2026-05-01 14:53 | -5.53605 | 111.75914 | 31909 ft | 456 kts | 149° |
| 2026-05-01 14:53 | -5.56343 | 111.77493 | 31445 ft | 453 kts | 149° |
| 2026-05-01 14:53 | -5.59059 | 111.79060 | 30975 ft | 448 kts | 149° |
| 2026-05-01 14:54 | -5.61752 | 111.80614 | 30508 ft | 445 kts | 149° |
| 2026-05-01 14:54 | -5.64422 | 111.82156 | 30055 ft | 441 kts | 149° |
| 2026-05-01 14:54 | -5.67071 | 111.83685 | 29592 ft | 437 kts | 149° |
| 2026-05-01 14:54 | -5.69691 | 111.85197 | 29129 ft | 433 kts | 149° |
| 2026-05-01 14:55 | -5.72292 | 111.86699 | 28656 ft | 429 kts | 149° |
| 2026-05-01 14:55 | -5.74869 | 111.88187 | 28189 ft | 426 kts | 149° |
| 2026-05-01 14:55 | -5.77424 | 111.89662 | 27717 ft | 422 kts | 149° |
| 2026-05-01 14:55 | -5.79962 | 111.91128 | 27263 ft | 419 kts | 149° |
| 2026-05-01 14:56 | -5.81660 | 111.92109 | 26953 ft | 417 kts | 149° |
| 2026-05-01 14:56 | -5.84164 | 111.93556 | 26496 ft | 413 kts | 149° |
| 2026-05-01 14:56 | -5.86643 | 111.94988 | 26042 ft | 410 kts | 149° |
| 2026-05-01 14:56 | -5.89113 | 111.96414 | 25589 ft | 407 kts | 149° |
| 2026-05-01 14:57 | -5.91556 | 111.97826 | 25143 ft | 404 kts | 149° |
| 2026-05-01 14:57 | -5.96397 | 112.00625 | 24250 ft | 399 kts | 149° |
| 2026-05-01 14:57 | -5.98797 | 112.02012 | 23927 ft | 394 kts | 149° |
| 2026-05-01 14:58 | -6.01138 | 112.03364 | 23889 ft | 382 kts | 149° |
| 2026-05-01 14:58 | -6.03375 | 112.04656 | 23873 ft | 371 kts | 149° |
| 2026-05-01 14:58 | -6.05616 | 112.05952 | 23893 ft | 374 kts | 149° |
| 2026-05-01 14:58 | -6.07864 | 112.07253 | 23875 ft | 368 kts | 149° |
| 2026-05-01 14:59 | -6.10048 | 112.08516 | 23868 ft | 356 kts | 149° |
| 2026-05-01 14:59 | -6.12146 | 112.09728 | 23868 ft | 343 kts | 149° |
| 2026-05-01 14:59 | -6.14182 | 112.10906 | 23864 ft | 330 kts | 149° |
| 2026-05-01 14:59 | -6.16131 | 112.12032 | 23869 ft | 317 kts | 149° |
| 2026-05-01 15:00 | -6.19883 | 112.14204 | 23394 ft | 309 kts | 148° |
| 2026-05-01 15:00 | -6.21750 | 112.15287 | 22984 ft | 311 kts | 148° |
| 2026-05-01 15:00 | -6.23660 | 112.16393 | 22548 ft | 314 kts | 148° |
| 2026-05-01 15:01 | -6.25548 | 112.17487 | 21849 ft | 324 kts | 148° |
| 2026-05-01 15:01 | -6.27554 | 112.18650 | 20618 ft | 345 kts | 148° |
| 2026-05-01 15:01 | -6.29694 | 112.19890 | 19350 ft | 363 kts | 148° |
| 2026-05-01 15:01 | -6.31939 | 112.21189 | 18428 ft | 368 kts | 148° |
| 2026-05-01 15:02 | -6.34123 | 112.22452 | 17800 ft | 364 kts | 148° |
| 2026-05-01 15:02 | -6.35593 | 112.23302 | 17427 ft | 360 kts | 148° |
| 2026-05-01 15:02 | -6.38442 | 112.24951 | 16575 ft | 354 kts | 148° |
| 2026-05-01 15:02 | -6.40556 | 112.26176 | 16090 ft | 346 kts | 149° |
| 2026-05-01 15:03 | -6.42618 | 112.27371 | 15660 ft | 338 kts | 149° |
| 2026-05-01 15:03 | -6.44653 | 112.28551 | 15265 ft | 328 kts | 149° |
| 2026-05-01 15:03 | -6.46625 | 112.29693 | 14905 ft | 328 kts | 149° |
| 2026-05-01 15:03 | -6.48617 | 112.30847 | 14533 ft | 331 kts | 149° |
| 2026-05-01 15:04 | -6.50623 | 112.32009 | 14233 ft | 336 kts | 149° |
| 2026-05-01 15:04 | -6.52664 | 112.33191 | 13862 ft | 341 kts | 149° |
| 2026-05-01 15:04 | -6.54716 | 112.34379 | 13476 ft | 340 kts | 149° |
| 2026-05-01 15:04 | -6.56809 | 112.35382 | 13172 ft | 336 kts | 163° |
| 2026-05-01 15:05 | -6.59092 | 112.35949 | 12936 ft | 332 kts | 166° |
| 2026-05-01 15:05 | -6.61342 | 112.36466 | 12687 ft | 331 kts | 167° |
| 2026-05-01 15:05 | -6.63551 | 112.36973 | 12437 ft | 330 kts | 167° |
| 2026-05-01 15:05 | -6.65782 | 112.37491 | 12186 ft | 329 kts | 167° |
| 2026-05-01 15:06 | -6.68013 | 112.38014 | 11941 ft | 330 kts | 166° |
| 2026-05-01 15:06 | -6.70255 | 112.38544 | 11689 ft | 331 kts | 166° |
| 2026-05-01 15:06 | -6.72492 | 112.39077 | 11442 ft | 329 kts | 166° |
| 2026-05-01 15:06 | -6.74743 | 112.39615 | 11185 ft | 328 kts | 166° |
| 2026-05-01 15:07 | -6.76955 | 112.40145 | 10939 ft | 327 kts | 166° |
| 2026-05-01 15:07 | -6.79131 | 112.40668 | 10692 ft | 325 kts | 166° |
| 2026-05-01 15:07 | -6.81333 | 112.41197 | 10443 ft | 324 kts | 166° |
| 2026-05-01 15:07 | -6.83550 | 112.41729 | 10188 ft | 323 kts | 166° |
| 2026-05-01 15:08 | -6.85722 | 112.42251 | 9933 ft | 318 kts | 166° |
| 2026-05-01 15:08 | -6.87828 | 112.42758 | 9680 ft | 312 kts | 166° |
| 2026-05-01 15:08 | -6.89923 | 112.43262 | 9422 ft | 307 kts | 166° |
| 2026-05-01 15:08 | -6.91983 | 112.43758 | 9169 ft | 302 kts | 166° |
| 2026-05-01 15:09 | -6.94004 | 112.44244 | 8916 ft | 297 kts | 166° |
| 2026-05-01 15:09 | -6.96002 | 112.44725 | 8661 ft | 293 kts | 166° |
| 2026-05-01 15:09 | -6.97968 | 112.45198 | 8408 ft | 289 kts | 166° |
| 2026-05-01 15:09 | -6.99909 | 112.45666 | 8154 ft | 285 kts | 166° |
| 2026-05-01 15:10 | -7.01852 | 112.46133 | 7899 ft | 281 kts | 166° |
| 2026-05-01 15:10 | -7.05588 | 112.47032 | 7398 ft | 275 kts | 166° |
| 2026-05-01 15:10 | -7.07467 | 112.47485 | 7135 ft | 272 kts | 166° |
| 2026-05-01 15:11 | -7.09299 | 112.47927 | 6888 ft | 269 kts | 166° |
| 2026-05-01 15:11 | -7.12915 | 112.48798 | 6385 ft | 265 kts | 166° |
| 2026-05-01 15:11 | -7.14704 | 112.49229 | 6136 ft | 264 kts | 166° |
| 2026-05-01 15:12 | -7.16461 | 112.49652 | 5891 ft | 262 kts | 166° |
| 2026-05-01 15:12 | -7.20005 | 112.50505 | 5466 ft | 256 kts | 166° |
| 2026-05-01 15:12 | -7.21722 | 112.50918 | 5302 ft | 250 kts | 166° |
| 2026-05-01 15:13 | -7.26540 | 112.52083 | 4980 ft | 227 kts | 166° |
| 2026-05-01 15:14 | -7.29623 | 112.52826 | 4747 ft | 232 kts | 166° |
| 2026-05-01 15:14 | -7.31196 | 112.53205 | 4505 ft | 232 kts | 166° |
| 2026-05-01 15:14 | -7.34014 | 112.54517 | 3982 ft | 227 kts | 120° |
| 2026-05-01 15:15 | -7.34617 | 112.57540 | 3563 ft | 223 kts | 98° |
| 2026-05-01 15:15 | -7.35070 | 112.60582 | 3207 ft | 209 kts | 100° |
| 2026-05-01 15:16 | -7.35506 | 112.63293 | 2755 ft | 186 kts | 99° |
| 2026-05-01 15:16 | -7.35890 | 112.65683 | 2326 ft | 157 kts | 99° |
| 2026-05-01 15:17 | -7.36215 | 112.67702 | 1912 ft | 142 kts | 99° |
| 2026-05-01 15:18 | -7.36691 | 112.70661 | 1348 ft | 142 kts | 99° |
| 2026-05-01 15:18 | -7.36849 | 112.71645 | 1159 ft | 143 kts | 99° |
| 2026-05-01 15:19 | -7.37327 | 112.74574 | 583 ft | 141 kts | 99° |
| 2026-05-01 15:19 | -7.37642 | 112.76574 | 223 ft | 147 kts | 99° |
| 2026-05-01 15:19 | -7.37802 | 112.77560 | 37 ft | 142 kts | 99° |
| 2026-05-01 15:20 | -7.38042 | 112.79044 | 11 ft | 39 kts | 99° |
| 2026-05-01 15:20 | -7.38036 | 112.79253 | 12 ft | 23 kts | 71° |
| 2026-05-01 15:20 | -7.38009 | 112.79330 | 8 ft | 5 kts | 69° |
| 2026-05-01 15:21 | -7.37997 | 112.79362 | 8 ft | 5 kts | 69° |
| 2026-05-01 15:21 | -7.37987 | 112.79388 | 8 ft | 0 kts | 61° |
| 2026-05-01 15:21 | -7.37984 | 112.79391 | 8 ft | 2 kts | 54° |
| 2026-05-01 15:21 | -7.37948 | 112.79409 | 8 ft | 8 kts | 11° |
| 2026-05-01 15:22 | -7.37789 | 112.79435 | 8 ft | 13 kts | 8° |
| 2026-05-01 15:22 | -7.37760 | 112.79440 | 8 ft | 13 kts | 8° |
| 2026-05-01 15:23 | -7.37592 | 112.79469 | 8 ft | 0 kts | 9° |